sensor_id;sensor_type;location;lat;lon;timestamp;temperature;humidity
11838;DHT22;5978;51.020;6.764;2022-11-20T00:01:14;4.70;99.90
11838;DHT22;5978;51.020;6.764;2022-11-20T00:03:40;4.70;99.90
11838;DHT22;5978;51.020;6.764;2022-11-20T00:06:25;4.50;99.90
11838;DHT22;5978;51.020;6.764;2022-11-20T00:08:51;4.60;99.90
11838;DHT22;5978;51.020;6.764;2022-11-20T00:11:20;4.60;99.90
11838;DHT22;5978;51.020;6.764;2022-11-20T00:13:49;4.50;99.90
11838;DHT22;5978;51.020;6.764;2022-11-20T00:16:17;4.60;99.90
11838;DHT22;5978;51.020;6.764;2022-11-20T00:18:44;4.70;99.90
11838;DHT22;5978;51.020;6.764;2022-11-20T00:21:29;4.70;99.90
11838;DHT22;5978;51.020;6.764;2022-11-20T00:23:56;4.80;99.90
11838;DHT22;5978;51.020;6.764;2022-11-20T00:26:23;4.80;99.90
11838;DHT22;5978;51.020;6.764;2022-11-20T00:28:51;4.80;99.90
11838;DHT22;5978;51.020;6.764;2022-11-20T00:31:18;4.80;99.90
11838;DHT22;5978;51.020;6.764;2022-11-20T00:33:45;4.80;99.90
11838;DHT22;5978;51.020;6.764;2022-11-20T00:36:15;4.80;99.90
11838;DHT22;5978;51.020;6.764;2022-11-20T00:38:41;4.80;99.90
11838;DHT22;5978;51.020;6.764;2022-11-20T00:41:09;4.80;99.90
11838;DHT22;5978;51.020;6.764;2022-11-20T00:43:35;4.70;99.90
11838;DHT22;5978;51.020;6.764;2022-11-20T00:46:04;4.80;99.90
11838;DHT22;5978;51.020;6.764;2022-11-20T00:48:30;4.80;99.90
11838;DHT22;5978;51.020;6.764;2022-11-20T00:50:57;4.80;99.90
11838;DHT22;5978;51.020;6.764;2022-11-20T00:53:23;4.80;99.90
11838;DHT22;5978;51.020;6.764;2022-11-20T00:56:10;4.80;99.90
11838;DHT22;5978;51.020;6.764;2022-11-20T00:58:38;4.80;99.90
11838;DHT22;5978;51.020;6.764;2022-11-20T01:03:35;4.70;99.90
11838;DHT22;5978;51.020;6.764;2022-11-20T01:06:03;4.70;99.90
11838;DHT22;5978;51.020;6.764;2022-11-20T01:08:34;4.60;99.90
11838;DHT22;5978;51.020;6.764;2022-11-20T01:11:05;4.60;99.90
11838;DHT22;5978;51.020;6.764;2022-11-20T01:13:31;4.60;99.90
11838;DHT22;5978;51.020;6.764;2022-11-20T01:18:48;4.60;99.90
11838;DHT22;5978;51.020;6.764;2022-11-20T01:21:19;4.60;99.90
11838;DHT22;5978;51.020;6.764;2022-11-20T01:23:46;4.70;99.90
11838;DHT22;5978;51.020;6.764;2022-11-20T01:26:17;4.80;99.90
11838;DHT22;5978;51.020;6.764;2022-11-20T01:28:43;4.80;99.90
11838;DHT22;5978;51.020;6.764;2022-11-20T01:31:18;4.80;99.90
11838;DHT22;5978;51.020;6.764;2022-11-20T01:33:47;4.80;99.90
11838;DHT22;5978;51.020;6.764;2022-11-20T01:36:13;4.80;99.90
11838;DHT22;5978;51.020;6.764;2022-11-20T01:38:39;4.70;99.90
11838;DHT22;5978;51.020;6.764;2022-11-20T01:41:06;4.70;99.90
11838;DHT22;5978;51.020;6.764;2022-11-20T01:43:32;4.70;99.90
11838;DHT22;5978;51.020;6.764;2022-11-20T01:46:17;4.80;99.90
11838;DHT22;5978;51.020;6.764;2022-11-20T01:49:03;4.80;99.90
11838;DHT22;5978;51.020;6.764;2022-11-20T01:51:41;4.90;99.90
11838;DHT22;5978;51.020;6.764;2022-11-20T01:54:12;4.80;99.90
11838;DHT22;5978;51.020;6.764;2022-11-20T01:56:43;4.80;99.90
11838;DHT22;5978;51.020;6.764;2022-11-20T01:59:11;4.80;99.90
11838;DHT22;5978;51.020;6.764;2022-11-20T02:01:38;4.70;99.90
11838;DHT22;5978;51.020;6.764;2022-11-20T02:04:05;4.70;99.90
11838;DHT22;5978;51.020;6.764;2022-11-20T02:06:35;4.70;99.90
11838;DHT22;5978;51.020;6.764;2022-11-20T02:09:02;4.70;99.90
11838;DHT22;5978;51.020;6.764;2022-11-20T02:11:29;4.60;99.90
11838;DHT22;5978;51.020;6.764;2022-11-20T02:13:55;4.60;99.90
11838;DHT22;5978;51.020;6.764;2022-11-20T02:18:47;4.50;99.90
11838;DHT22;5978;51.020;6.764;2022-11-20T02:24:11;4.40;99.90
11838;DHT22;5978;51.020;6.764;2022-11-20T02:27:01;4.30;99.90
11838;DHT22;5978;51.020;6.764;2022-11-20T02:29:51;4.30;99.90
11838;DHT22;5978;51.020;6.764;2022-11-20T02:32:23;4.20;99.90
11838;DHT22;5978;51.020;6.764;2022-11-20T02:34:49;4.20;99.90
11838;DHT22;5978;51.020;6.764;2022-11-20T02:37:15;4.20;99.90
11838;DHT22;5978;51.020;6.764;2022-11-20T02:39:44;4.20;99.90
11838;DHT22;5978;51.020;6.764;2022-11-20T02:42:09;4.20;99.90
11838;DHT22;5978;51.020;6.764;2022-11-20T02:44:38;4.20;99.90
11838;DHT22;5978;51.020;6.764;2022-11-20T02:47:04;4.20;99.90
11838;DHT22;5978;51.020;6.764;2022-11-20T02:49:29;4.20;99.90
11838;DHT22;5978;51.020;6.764;2022-11-20T02:51:55;4.20;99.90
11838;DHT22;5978;51.020;6.764;2022-11-20T02:54:20;4.20;99.90
11838;DHT22;5978;51.020;6.764;2022-11-20T02:56:46;4.30;99.90
11838;DHT22;5978;51.020;6.764;2022-11-20T02:59:12;4.30;99.90
11838;DHT22;5978;51.020;6.764;2022-11-20T03:01:37;4.40;99.90
11838;DHT22;5978;51.020;6.764;2022-11-20T03:04:03;4.30;99.90
11838;DHT22;5978;51.020;6.764;2022-11-20T03:06:28;4.40;99.90
11838;DHT22;5978;51.020;6.764;2022-11-20T03:08:54;4.40;99.90
11838;DHT22;5978;51.020;6.764;2022-11-20T03:11:20;4.50;99.90
11838;DHT22;5978;51.020;6.764;2022-11-20T03:13:46;4.50;99.90
11838;DHT22;5978;51.020;6.764;2022-11-20T03:16:17;4.40;99.90
11838;DHT22;5978;51.020;6.764;2022-11-20T03:18:43;4.50;99.90
11838;DHT22;5978;51.020;6.764;2022-11-20T03:21:10;4.50;99.90
11838;DHT22;5978;51.020;6.764;2022-11-20T03:23:36;4.40;99.90
11838;DHT22;5978;51.020;6.764;2022-11-20T03:26:12;4.40;99.90
11838;DHT22;5978;51.020;6.764;2022-11-20T03:28:39;4.40;99.90
11838;DHT22;5978;51.020;6.764;2022-11-20T03:31:09;4.40;99.90
11838;DHT22;5978;51.020;6.764;2022-11-20T03:33:35;4.40;99.90
11838;DHT22;5978;51.020;6.764;2022-11-20T03:36:04;4.40;99.90
11838;DHT22;5978;51.020;6.764;2022-11-20T03:38:30;4.40;99.90
11838;DHT22;5978;51.020;6.764;2022-11-20T03:41:05;4.40;99.90
11838;DHT22;5978;51.020;6.764;2022-11-20T03:43:32;4.40;99.90
11838;DHT22;5978;51.020;6.764;2022-11-20T03:45:58;4.40;99.90
11838;DHT22;5978;51.020;6.764;2022-11-20T03:48:24;4.30;99.90
11838;DHT22;5978;51.020;6.764;2022-11-20T03:50:51;4.30;99.90
11838;DHT22;5978;51.020;6.764;2022-11-20T03:53:17;4.30;99.90
11838;DHT22;5978;51.020;6.764;2022-11-20T03:55:43;4.20;99.90
11838;DHT22;5978;51.020;6.764;2022-11-20T03:58:09;4.20;99.90
11838;DHT22;5978;51.020;6.764;2022-11-20T04:00:35;4.20;99.90
11838;DHT22;5978;51.020;6.764;2022-11-20T04:03:02;4.10;99.90
11838;DHT22;5978;51.020;6.764;2022-11-20T04:05:28;4.10;99.90
11838;DHT22;5978;51.020;6.764;2022-11-20T04:07:54;4.10;99.90
11838;DHT22;5978;51.020;6.764;2022-11-20T04:10:19;4.10;99.90
11838;DHT22;5978;51.020;6.764;2022-11-20T04:12:45;4.00;99.90
11838;DHT22;5978;51.020;6.764;2022-11-20T04:15:14;4.00;99.90
11838;DHT22;5978;51.020;6.764;2022-11-20T04:17:42;4.00;99.90
11838;DHT22;5978;51.020;6.764;2022-11-20T04:20:08;4.10;99.90
11838;DHT22;5978;51.020;6.764;2022-11-20T04:22:34;4.10;99.90
11838;DHT22;5978;51.020;6.764;2022-11-20T04:24:59;4.10;99.90
11838;DHT22;5978;51.020;6.764;2022-11-20T04:27:25;4.20;99.90
11838;DHT22;5978;51.020;6.764;2022-11-20T04:30:06;4.30;99.90
11838;DHT22;5978;51.020;6.764;2022-11-20T04:32:32;4.30;99.90
11838;DHT22;5978;51.020;6.764;2022-11-20T04:34:57;4.40;99.90
11838;DHT22;5978;51.020;6.764;2022-11-20T04:37:23;4.40;99.90
11838;DHT22;5978;51.020;6.764;2022-11-20T04:40:07;4.40;99.90
11838;DHT22;5978;51.020;6.764;2022-11-20T04:42:34;4.50;99.90
11838;DHT22;5978;51.020;6.764;2022-11-20T04:45:00;4.60;99.90
11838;DHT22;5978;51.020;6.764;2022-11-20T04:47:26;4.60;99.90
11838;DHT22;5978;51.020;6.764;2022-11-20T04:49:51;4.60;99.90
11838;DHT22;5978;51.020;6.764;2022-11-20T04:52:17;4.60;99.90
11838;DHT22;5978;51.020;6.764;2022-11-20T04:54:45;4.60;99.90
11838;DHT22;5978;51.020;6.764;2022-11-20T04:57:12;4.60;99.90
11838;DHT22;5978;51.020;6.764;2022-11-20T04:59:38;4.60;99.90
11838;DHT22;5978;51.020;6.764;2022-11-20T05:02:03;4.60;99.90
11838;DHT22;5978;51.020;6.764;2022-11-20T05:04:29;4.70;99.90
11838;DHT22;5978;51.020;6.764;2022-11-20T05:06:54;4.60;99.90
11838;DHT22;5978;51.020;6.764;2022-11-20T05:09:20;4.60;99.90
11838;DHT22;5978;51.020;6.764;2022-11-20T05:11:45;4.70;99.90
11838;DHT22;5978;51.020;6.764;2022-11-20T05:14:11;4.70;99.90
11838;DHT22;5978;51.020;6.764;2022-11-20T05:16:36;4.80;99.90
11838;DHT22;5978;51.020;6.764;2022-11-20T05:19:02;4.70;99.90
11838;DHT22;5978;51.020;6.764;2022-11-20T05:21:30;4.70;99.90
11838;DHT22;5978;51.020;6.764;2022-11-20T05:23:56;4.70;99.90
11838;DHT22;5978;51.020;6.764;2022-11-20T05:26:22;4.80;99.90
11838;DHT22;5978;51.020;6.764;2022-11-20T05:28:48;4.80;99.90
11838;DHT22;5978;51.020;6.764;2022-11-20T05:31:17;4.80;99.90
11838;DHT22;5978;51.020;6.764;2022-11-20T05:33:44;4.70;99.90
11838;DHT22;5978;51.020;6.764;2022-11-20T05:36:11;4.70;99.90
11838;DHT22;5978;51.020;6.764;2022-11-20T05:38:37;4.80;99.90
11838;DHT22;5978;51.020;6.764;2022-11-20T05:41:08;4.80;99.90
11838;DHT22;5978;51.020;6.764;2022-11-20T05:43:35;4.70;99.90
11838;DHT22;5978;51.020;6.764;2022-11-20T05:46:01;4.70;99.90
11838;DHT22;5978;51.020;6.764;2022-11-20T05:48:27;4.60;99.90
11838;DHT22;5978;51.020;6.764;2022-11-20T05:50:53;4.70;99.90
11838;DHT22;5978;51.020;6.764;2022-11-20T05:53:18;4.60;99.90
11838;DHT22;5978;51.020;6.764;2022-11-20T05:55:44;4.60;99.90
11838;DHT22;5978;51.020;6.764;2022-11-20T05:58:10;4.60;99.90
11838;DHT22;5978;51.020;6.764;2022-11-20T06:00:35;4.50;99.90
11838;DHT22;5978;51.020;6.764;2022-11-20T06:03:01;4.50;99.90
11838;DHT22;5978;51.020;6.764;2022-11-20T06:05:27;4.50;99.90
11838;DHT22;5978;51.020;6.764;2022-11-20T06:07:52;4.50;99.90
11838;DHT22;5978;51.020;6.764;2022-11-20T06:10:18;4.50;99.90
11838;DHT22;5978;51.020;6.764;2022-11-20T06:12:43;4.50;99.90
11838;DHT22;5978;51.020;6.764;2022-11-20T06:15:10;4.40;99.90
11838;DHT22;5978;51.020;6.764;2022-11-20T06:17:36;4.40;99.90
11838;DHT22;5978;51.020;6.764;2022-11-20T06:20:01;4.40;99.90
11838;DHT22;5978;51.020;6.764;2022-11-20T06:22:27;4.30;99.90
11838;DHT22;5978;51.020;6.764;2022-11-20T06:24:53;4.30;99.90
11838;DHT22;5978;51.020;6.764;2022-11-20T06:27:18;4.20;99.90
11838;DHT22;5978;51.020;6.764;2022-11-20T06:29:44;4.20;99.90
11838;DHT22;5978;51.020;6.764;2022-11-20T06:32:09;4.20;99.90
11838;DHT22;5978;51.020;6.764;2022-11-20T06:34:35;4.20;99.90
11838;DHT22;5978;51.020;6.764;2022-11-20T06:37:00;4.10;99.90
11838;DHT22;5978;51.020;6.764;2022-11-20T06:39:26;4.10;99.90
11838;DHT22;5978;51.020;6.764;2022-11-20T06:41:55;4.00;99.90
11838;DHT22;5978;51.020;6.764;2022-11-20T06:44:20;4.10;99.90
11838;DHT22;5978;51.020;6.764;2022-11-20T06:46:46;4.00;99.90
11838;DHT22;5978;51.020;6.764;2022-11-20T06:49:11;4.00;99.90
11838;DHT22;5978;51.020;6.764;2022-11-20T06:51:37;4.10;99.90
11838;DHT22;5978;51.020;6.764;2022-11-20T06:54:02;4.10;99.90
11838;DHT22;5978;51.020;6.764;2022-11-20T06:56:28;4.10;99.90
11838;DHT22;5978;51.020;6.764;2022-11-20T06:58:54;4.10;99.90
11838;DHT22;5978;51.020;6.764;2022-11-20T07:01:19;4.10;99.90
11838;DHT22;5978;51.020;6.764;2022-11-20T07:03:45;4.10;99.90
11838;DHT22;5978;51.020;6.764;2022-11-20T07:06:10;4.10;99.90
11838;DHT22;5978;51.020;6.764;2022-11-20T07:08:36;4.10;99.90
11838;DHT22;5978;51.020;6.764;2022-11-20T07:11:10;4.10;99.90
11838;DHT22;5978;51.020;6.764;2022-11-20T07:13:36;4.20;99.90
11838;DHT22;5978;51.020;6.764;2022-11-20T07:16:04;4.20;99.90
11838;DHT22;5978;51.020;6.764;2022-11-20T07:18:30;4.20;99.90
11838;DHT22;5978;51.020;6.764;2022-11-20T07:20:59;4.20;99.90
11838;DHT22;5978;51.020;6.764;2022-11-20T07:23:24;4.30;99.90
11838;DHT22;5978;51.020;6.764;2022-11-20T07:25:50;4.40;99.90
11838;DHT22;5978;51.020;6.764;2022-11-20T07:28:15;4.40;99.90
11838;DHT22;5978;51.020;6.764;2022-11-20T07:30:41;4.40;99.90
11838;DHT22;5978;51.020;6.764;2022-11-20T07:33:06;4.50;99.90
11838;DHT22;5978;51.020;6.764;2022-11-20T07:35:32;4.60;99.90
11838;DHT22;5978;51.020;6.764;2022-11-20T07:37:58;4.60;99.90
11838;DHT22;5978;51.020;6.764;2022-11-20T07:40:23;4.70;99.90
11838;DHT22;5978;51.020;6.764;2022-11-20T07:42:54;4.70;99.90
11838;DHT22;5978;51.020;6.764;2022-11-20T07:45:22;4.70;99.90
11838;DHT22;5978;51.020;6.764;2022-11-20T07:47:49;4.70;99.90
11838;DHT22;5978;51.020;6.764;2022-11-20T07:50:15;4.70;99.90
11838;DHT22;5978;51.020;6.764;2022-11-20T07:52:41;4.80;99.90
11838;DHT22;5978;51.020;6.764;2022-11-20T07:55:08;4.70;99.90
11838;DHT22;5978;51.020;6.764;2022-11-20T07:57:33;4.70;99.90
11838;DHT22;5978;51.020;6.764;2022-11-20T07:59:59;4.80;99.90
11838;DHT22;5978;51.020;6.764;2022-11-20T08:02:25;4.80;99.90
11838;DHT22;5978;51.020;6.764;2022-11-20T08:04:50;4.80;99.90
11838;DHT22;5978;51.020;6.764;2022-11-20T08:07:16;4.90;99.90
11838;DHT22;5978;51.020;6.764;2022-11-20T08:09:41;4.90;99.90
11838;DHT22;5978;51.020;6.764;2022-11-20T08:12:07;5.00;99.90
11838;DHT22;5978;51.020;6.764;2022-11-20T08:14:52;4.90;99.90
11838;DHT22;5978;51.020;6.764;2022-11-20T08:17:17;4.90;99.90
11838;DHT22;5978;51.020;6.764;2022-11-20T08:19:43;4.90;99.90
11838;DHT22;5978;51.020;6.764;2022-11-20T08:22:08;4.80;99.90
11838;DHT22;5978;51.020;6.764;2022-11-20T08:24:34;4.80;99.90
11838;DHT22;5978;51.020;6.764;2022-11-20T08:27:00;4.80;99.90
11838;DHT22;5978;51.020;6.764;2022-11-20T08:29:26;4.80;99.90
11838;DHT22;5978;51.020;6.764;2022-11-20T08:31:52;4.90;99.90
11838;DHT22;5978;51.020;6.764;2022-11-20T08:34:18;4.90;99.90
11838;DHT22;5978;51.020;6.764;2022-11-20T08:36:43;4.90;99.90
11838;DHT22;5978;51.020;6.764;2022-11-20T08:39:11;5.00;99.90
11838;DHT22;5978;51.020;6.764;2022-11-20T08:42:08;5.00;99.90
11838;DHT22;5978;51.020;6.764;2022-11-20T08:44:34;5.00;99.90
11838;DHT22;5978;51.020;6.764;2022-11-20T08:47:00;5.10;99.90
11838;DHT22;5978;51.020;6.764;2022-11-20T08:49:26;5.10;99.90
11838;DHT22;5978;51.020;6.764;2022-11-20T08:51:52;5.00;99.90
11838;DHT22;5978;51.020;6.764;2022-11-20T08:54:20;5.10;99.90
11838;DHT22;5978;51.020;6.764;2022-11-20T08:56:47;5.20;99.90
11838;DHT22;5978;51.020;6.764;2022-11-20T08:59:13;5.30;99.90
11838;DHT22;5978;51.020;6.764;2022-11-20T09:01:38;5.30;99.90
11838;DHT22;5978;51.020;6.764;2022-11-20T09:04:10;5.30;99.90
11838;DHT22;5978;51.020;6.764;2022-11-20T09:06:37;5.40;99.90
11838;DHT22;5978;51.020;6.764;2022-11-20T09:09:02;5.40;99.90
11838;DHT22;5978;51.020;6.764;2022-11-20T09:11:28;5.40;99.90
11838;DHT22;5978;51.020;6.764;2022-11-20T09:13:53;5.50;99.90
11838;DHT22;5978;51.020;6.764;2022-11-20T09:16:19;5.50;99.90
11838;DHT22;5978;51.020;6.764;2022-11-20T09:18:45;5.50;99.90
11838;DHT22;5978;51.020;6.764;2022-11-20T09:21:12;5.50;99.90
11838;DHT22;5978;51.020;6.764;2022-11-20T09:23:38;5.60;99.90
11838;DHT22;5978;51.020;6.764;2022-11-20T09:26:06;5.70;99.90
11838;DHT22;5978;51.020;6.764;2022-11-20T09:28:32;6.00;99.90
11838;DHT22;5978;51.020;6.764;2022-11-20T09:30:58;6.20;99.90
11838;DHT22;5978;51.020;6.764;2022-11-20T09:33:23;6.00;99.90
11838;DHT22;5978;51.020;6.764;2022-11-20T09:35:49;5.90;99.90
11838;DHT22;5978;51.020;6.764;2022-11-20T09:38:14;6.00;99.90
11838;DHT22;5978;51.020;6.764;2022-11-20T09:41:14;6.10;99.90
11838;DHT22;5978;51.020;6.764;2022-11-20T09:44:01;5.90;99.90
11838;DHT22;5978;51.020;6.764;2022-11-20T09:51:48;5.90;99.90
11838;DHT22;5978;51.020;6.764;2022-11-20T09:54:39;5.90;99.90
11838;DHT22;5978;51.020;6.764;2022-11-20T09:57:11;6.00;99.90
11838;DHT22;5978;51.020;6.764;2022-11-20T09:59:49;6.00;99.90
11838;DHT22;5978;51.020;6.764;2022-11-20T10:04:55;5.90;99.90
11838;DHT22;5978;51.020;6.764;2022-11-20T10:10:43;5.90;99.90
11838;DHT22;5978;51.020;6.764;2022-11-20T10:18:22;5.90;99.90
11838;DHT22;5978;51.020;6.764;2022-11-20T10:21:26;5.90;99.90
11838;DHT22;5978;51.020;6.764;2022-11-20T10:29:40;6.00;99.90
11838;DHT22;5978;51.020;6.764;2022-11-20T10:32:14;6.00;99.90
11838;DHT22;5978;51.020;6.764;2022-11-20T10:34:47;6.00;99.90
11838;DHT22;5978;51.020;6.764;2022-11-20T10:37:23;6.10;99.90
11838;DHT22;5978;51.020;6.764;2022-11-20T10:39:58;6.20;99.90
11838;DHT22;5978;51.020;6.764;2022-11-20T10:42:35;6.30;99.90
11838;DHT22;5978;51.020;6.764;2022-11-20T10:45:19;6.40;99.90
11838;DHT22;5978;51.020;6.764;2022-11-20T10:47:47;6.40;99.90
11838;DHT22;5978;51.020;6.764;2022-11-20T10:50:18;6.20;99.90
11838;DHT22;5978;51.020;6.764;2022-11-20T10:53:02;6.20;99.90
11838;DHT22;5978;51.020;6.764;2022-11-20T10:55:40;6.10;99.90
11838;DHT22;5978;51.020;6.764;2022-11-20T10:58:22;6.10;99.90
11838;DHT22;5978;51.020;6.764;2022-11-20T11:00:50;6.10;99.90
11838;DHT22;5978;51.020;6.764;2022-11-20T11:03:30;6.00;99.90
11838;DHT22;5978;51.020;6.764;2022-11-20T11:08:39;6.10;99.90
11838;DHT22;5978;51.020;6.764;2022-11-20T11:11:27;6.20;99.90
11838;DHT22;5978;51.020;6.764;2022-11-20T11:14:14;6.10;99.90
11838;DHT22;5978;51.020;6.764;2022-11-20T11:16:54;6.10;99.90
11838;DHT22;5978;51.020;6.764;2022-11-20T11:19:20;5.90;99.90
11838;DHT22;5978;51.020;6.764;2022-11-20T11:21:47;6.00;99.90
11838;DHT22;5978;51.020;6.764;2022-11-20T11:24:24;5.90;99.90
11838;DHT22;5978;51.020;6.764;2022-11-20T11:26:55;5.90;99.90
11838;DHT22;5978;51.020;6.764;2022-11-20T11:29:21;5.80;99.90
11838;DHT22;5978;51.020;6.764;2022-11-20T11:31:47;5.80;99.90
11838;DHT22;5978;51.020;6.764;2022-11-20T11:34:15;5.90;99.90
11838;DHT22;5978;51.020;6.764;2022-11-20T11:36:41;5.90;99.90
11838;DHT22;5978;51.020;6.764;2022-11-20T11:39:16;5.90;99.90
11838;DHT22;5978;51.020;6.764;2022-11-20T11:41:43;6.00;99.90
11838;DHT22;5978;51.020;6.764;2022-11-20T11:47:02;6.00;99.90
11838;DHT22;5978;51.020;6.764;2022-11-20T11:49:30;6.00;99.90
11838;DHT22;5978;51.020;6.764;2022-11-20T11:52:21;6.00;99.90
11838;DHT22;5978;51.020;6.764;2022-11-20T11:54:53;6.00;99.90
11838;DHT22;5978;51.020;6.764;2022-11-20T11:57:22;5.90;99.90
11838;DHT22;5978;51.020;6.764;2022-11-20T12:00:09;5.90;99.90
11838;DHT22;5978;51.020;6.764;2022-11-20T12:05:34;5.80;99.90
11838;DHT22;5978;51.020;6.764;2022-11-20T12:08:24;5.90;99.90
11838;DHT22;5978;51.020;6.764;2022-11-20T12:16:17;5.90;99.90
11838;DHT22;5978;51.020;6.764;2022-11-20T12:18:50;6.00;99.90
11838;DHT22;5978;51.020;6.764;2022-11-20T12:21:31;5.90;99.90
11838;DHT22;5978;51.020;6.764;2022-11-20T12:34:47;6.00;99.90
11838;DHT22;5978;51.020;6.764;2022-11-20T12:39:49;6.10;99.90
11838;DHT22;5978;51.020;6.764;2022-11-20T12:42:27;6.10;99.90
11838;DHT22;5978;51.020;6.764;2022-11-20T12:56:52;6.30;99.90
11838;DHT22;5978;51.020;6.764;2022-11-20T13:03:00;6.40;99.90
11838;DHT22;5978;51.020;6.764;2022-11-20T13:08:18;6.60;99.90
11838;DHT22;5978;51.020;6.764;2022-11-20T13:11:03;6.50;99.90
11838;DHT22;5978;51.020;6.764;2022-11-20T13:13:45;6.60;99.90
11838;DHT22;5978;51.020;6.764;2022-11-20T13:16:24;6.60;99.90
11838;DHT22;5978;51.020;6.764;2022-11-20T13:18:50;6.70;99.90
11838;DHT22;5978;51.020;6.764;2022-11-20T13:24:21;6.70;99.90
11838;DHT22;5978;51.020;6.764;2022-11-20T13:27:04;6.60;99.90
11838;DHT22;5978;51.020;6.764;2022-11-20T13:29:30;6.60;99.90
11838;DHT22;5978;51.020;6.764;2022-11-20T13:32:17;6.50;99.90
11838;DHT22;5978;51.020;6.764;2022-11-20T13:34:59;6.60;99.90
11838;DHT22;5978;51.020;6.764;2022-11-20T13:37:34;6.50;99.90
11838;DHT22;5978;51.020;6.764;2022-11-20T13:45:28;6.70;99.90
11838;DHT22;5978;51.020;6.764;2022-11-20T13:47:56;6.60;99.90
11838;DHT22;5978;51.020;6.764;2022-11-20T13:50:45;6.70;99.90
11838;DHT22;5978;51.020;6.764;2022-11-20T13:56:34;6.60;99.90
11838;DHT22;5978;51.020;6.764;2022-11-20T14:01:34;6.50;99.90
11838;DHT22;5978;51.020;6.764;2022-11-20T14:04:07;6.60;99.90
11838;DHT22;5978;51.020;6.764;2022-11-20T14:06:44;6.60;99.90
11838;DHT22;5978;51.020;6.764;2022-11-20T14:09:32;6.60;99.90
11838;DHT22;5978;51.020;6.764;2022-11-20T14:11:58;6.50;99.90
11838;DHT22;5978;51.020;6.764;2022-11-20T14:14:29;6.50;99.90
11838;DHT22;5978;51.020;6.764;2022-11-20T14:17:18;6.50;99.90
11838;DHT22;5978;51.020;6.764;2022-11-20T14:19:49;6.50;99.90
11838;DHT22;5978;51.020;6.764;2022-11-20T14:22:23;6.40;99.90
11838;DHT22;5978;51.020;6.764;2022-11-20T14:25:17;6.50;99.90
11838;DHT22;5978;51.020;6.764;2022-11-20T14:27:49;6.40;99.90
11838;DHT22;5978;51.020;6.764;2022-11-20T14:30:19;6.40;99.90
11838;DHT22;5978;51.020;6.764;2022-11-20T14:32:46;6.40;99.90
11838;DHT22;5978;51.020;6.764;2022-11-20T14:35:27;6.30;99.90
11838;DHT22;5978;51.020;6.764;2022-11-20T14:37:54;6.30;99.90
11838;DHT22;5978;51.020;6.764;2022-11-20T14:40:34;6.40;99.90
11838;DHT22;5978;51.020;6.764;2022-11-20T14:43:17;6.30;99.90
11838;DHT22;5978;51.020;6.764;2022-11-20T14:45:46;6.30;99.90
11838;DHT22;5978;51.020;6.764;2022-11-20T14:48:16;6.30;99.90
11838;DHT22;5978;51.020;6.764;2022-11-20T14:50:42;6.40;99.90
11838;DHT22;5978;51.020;6.764;2022-11-20T14:53:08;6.40;99.90
11838;DHT22;5978;51.020;6.764;2022-11-20T14:55:35;6.40;99.90
11838;DHT22;5978;51.020;6.764;2022-11-20T14:58:04;6.40;99.90
11838;DHT22;5978;51.020;6.764;2022-11-20T15:00:32;6.40;99.90
11838;DHT22;5978;51.020;6.764;2022-11-20T15:02:58;6.40;99.90
11838;DHT22;5978;51.020;6.764;2022-11-20T15:05:46;6.40;99.90
11838;DHT22;5978;51.020;6.764;2022-11-20T15:08:29;6.40;99.90
11838;DHT22;5978;51.020;6.764;2022-11-20T15:10:55;6.40;99.90
11838;DHT22;5978;51.020;6.764;2022-11-20T15:15:56;6.40;99.90
11838;DHT22;5978;51.020;6.764;2022-11-20T15:18:45;6.40;99.90
11838;DHT22;5978;51.020;6.764;2022-11-20T15:21:13;6.40;99.90
11838;DHT22;5978;51.020;6.764;2022-11-20T15:23:39;6.40;99.90
11838;DHT22;5978;51.020;6.764;2022-11-20T15:26:05;6.40;99.90
11838;DHT22;5978;51.020;6.764;2022-11-20T15:28:34;6.40;99.90
11838;DHT22;5978;51.020;6.764;2022-11-20T15:31:01;6.40;99.90
11838;DHT22;5978;51.020;6.764;2022-11-20T15:33:28;6.30;99.90
11838;DHT22;5978;51.020;6.764;2022-11-20T15:35:54;6.30;99.90
11838;DHT22;5978;51.020;6.764;2022-11-20T15:38:20;6.40;99.90
11838;DHT22;5978;51.020;6.764;2022-11-20T15:40:45;6.30;99.90
11838;DHT22;5978;51.020;6.764;2022-11-20T15:43:11;6.30;99.90
11838;DHT22;5978;51.020;6.764;2022-11-20T15:45:56;6.20;99.90
11838;DHT22;5978;51.020;6.764;2022-11-20T15:48:27;6.20;99.90
11838;DHT22;5978;51.020;6.764;2022-11-20T15:53:34;6.30;99.90
11838;DHT22;5978;51.020;6.764;2022-11-20T15:56:00;6.20;99.90
11838;DHT22;5978;51.020;6.764;2022-11-20T15:58:25;6.20;99.90
11838;DHT22;5978;51.020;6.764;2022-11-20T16:00:52;6.20;99.90
11838;DHT22;5978;51.020;6.764;2022-11-20T16:03:18;6.20;99.90
11838;DHT22;5978;51.020;6.764;2022-11-20T16:05:44;6.20;99.90
11838;DHT22;5978;51.020;6.764;2022-11-20T16:08:10;6.20;99.90
11838;DHT22;5978;51.020;6.764;2022-11-20T16:10:35;6.20;99.90
11838;DHT22;5978;51.020;6.764;2022-11-20T16:13:01;6.30;99.90
11838;DHT22;5978;51.020;6.764;2022-11-20T16:15:50;6.20;99.90
11838;DHT22;5978;51.020;6.764;2022-11-20T16:18:19;6.20;99.90
11838;DHT22;5978;51.020;6.764;2022-11-20T16:20:46;6.30;99.90
11838;DHT22;5978;51.020;6.764;2022-11-20T16:23:13;6.30;99.90
11838;DHT22;5978;51.020;6.764;2022-11-20T16:25:39;6.30;99.90
11838;DHT22;5978;51.020;6.764;2022-11-20T16:28:05;6.30;99.90
11838;DHT22;5978;51.020;6.764;2022-11-20T16:30:32;6.30;99.90
11838;DHT22;5978;51.020;6.764;2022-11-20T16:32:58;6.40;99.90
11838;DHT22;5978;51.020;6.764;2022-11-20T16:35:26;6.40;99.90
11838;DHT22;5978;51.020;6.764;2022-11-20T16:37:53;6.40;99.90
11838;DHT22;5978;51.020;6.764;2022-11-20T16:40:19;6.40;99.90
11838;DHT22;5978;51.020;6.764;2022-11-20T16:42:44;6.40;99.90
11838;DHT22;5978;51.020;6.764;2022-11-20T16:45:10;6.30;99.90
11838;DHT22;5978;51.020;6.764;2022-11-20T16:47:36;6.40;99.90
11838;DHT22;5978;51.020;6.764;2022-11-20T16:50:04;6.40;99.90
11838;DHT22;5978;51.020;6.764;2022-11-20T16:52:30;6.40;99.90
11838;DHT22;5978;51.020;6.764;2022-11-20T16:54:57;6.40;99.90
11838;DHT22;5978;51.020;6.764;2022-11-20T16:57:23;6.40;99.90
11838;DHT22;5978;51.020;6.764;2022-11-20T16:59:49;6.40;99.90
11838;DHT22;5978;51.020;6.764;2022-11-20T17:02:14;6.40;99.90
11838;DHT22;5978;51.020;6.764;2022-11-20T17:04:40;6.40;99.90
11838;DHT22;5978;51.020;6.764;2022-11-20T17:07:06;6.40;99.90
11838;DHT22;5978;51.020;6.764;2022-11-20T17:09:32;6.50;99.90
11838;DHT22;5978;51.020;6.764;2022-11-20T17:11:57;6.40;99.90
11838;DHT22;5978;51.020;6.764;2022-11-20T17:14:23;6.50;99.90
11838;DHT22;5978;51.020;6.764;2022-11-20T17:16:49;6.40;99.90
11838;DHT22;5978;51.020;6.764;2022-11-20T17:19:14;6.40;99.90
11838;DHT22;5978;51.020;6.764;2022-11-20T17:21:40;6.40;99.90
11838;DHT22;5978;51.020;6.764;2022-11-20T17:24:10;6.40;99.90
11838;DHT22;5978;51.020;6.764;2022-11-20T17:26:38;6.40;99.90
11838;DHT22;5978;51.020;6.764;2022-11-20T17:29:25;6.40;99.90
11838;DHT22;5978;51.020;6.764;2022-11-20T17:31:50;6.40;99.90
11838;DHT22;5978;51.020;6.764;2022-11-20T17:34:16;6.40;99.90
11838;DHT22;5978;51.020;6.764;2022-11-20T17:36:42;6.40;99.90
11838;DHT22;5978;51.020;6.764;2022-11-20T17:39:10;6.40;99.90
11838;DHT22;5978;51.020;6.764;2022-11-20T17:41:36;6.40;99.90
11838;DHT22;5978;51.020;6.764;2022-11-20T17:44:02;6.40;99.90
11838;DHT22;5978;51.020;6.764;2022-11-20T17:46:30;6.40;99.90
11838;DHT22;5978;51.020;6.764;2022-11-20T17:49:00;6.50;99.90
11838;DHT22;5978;51.020;6.764;2022-11-20T17:51:28;6.40;99.90
11838;DHT22;5978;51.020;6.764;2022-11-20T17:54:02;6.40;99.90